Time;durP1;ratioP1;P1;durP2;ratioP2;P2;SDS_P1;SDS_P2;PMS_P1;PMS_P2;Temp;Humidity;BMP_temperature;BMP_pressure;BME280_temperature;BME280_humidity;BME280_pressure;Samples;Min_cycle;Max_cycle;Signal;HPM_P1;HPM_P2
2024/02/03 00:00:39;;;;;;;20.60;4.80;;;;;;;-147.86;100.00;-17609.17;105661;1254;60828;-56
2024/02/03 00:03:07;;;;;;;16.10;4.50;;;;;;;-147.86;100.00;-17609.17;105698;1259;59948;-55
2024/02/03 00:05:35;;;;;;;19.20;4.90;;;;;;;-147.86;100.00;-17609.17;105666;1254;71740;-56
2024/02/03 00:08:04;;;;;;;29.30;5.70;;;;;;;-147.86;100.00;-17609.17;105704;1254;63214;-56
2024/02/03 00:10:32;;;;;;;23.80;5.50;;;;;;;-147.86;100.00;-17598.08;105716;1258;72586;-55
2024/02/03 00:12:59;;;;;;;28.00;4.70;;;;;;;-147.86;100.00;-17488.03;105667;1258;59678;-54
2024/02/03 00:15:28;;;;;;;27.70;4.70;;;;;;;-147.86;100.00;-17287.65;105698;1259;59621;-55
2024/02/03 00:17:56;;;;;;;25.70;5.70;;;;;;;-147.86;100.00;-17037.92;105737;1259;72075;-54
2024/02/03 00:20:25;;;;;;;28.80;4.40;;;;;;;-147.86;100.00;-16727.54;105723;1260;64349;-57
2024/02/03 00:22:53;;;;;;;23.60;4.00;;;;;;;-147.86;100.00;-16453.77;105724;1259;71638;-52
2024/02/03 00:25:21;;;;;;;17.90;5.00;;;;;;;-147.86;100.00;-15953.98;105584;1254;59689;-54
2024/02/03 00:27:49;;;;;;;16.50;5.50;;;;;;;-147.86;100.00;-15530.90;105584;1260;61399;-56
2024/02/03 00:30:17;;;;;;;26.10;4.80;;;;;;;-147.86;100.00;-15093.11;105465;1254;71791;-55
2024/02/03 00:32:45;;;;;;;22.30;4.80;;;;;;;-147.86;100.00;-14693.84;105671;1254;64349;-58
2024/02/03 00:35:13;;;;;;;26.50;5.30;;;;;;;-147.86;100.00;-14167.21;105676;1259;71967;-59
2024/02/03 00:37:41;;;;;;;26.70;5.60;;;;;;;-147.86;100.00;-13718.08;105718;1254;59746;-57
2024/02/03 00:40:09;;;;;;;19.20;5.10;;;;;;;-147.86;100.00;-13361.90;105670;1254;59557;-54
2024/02/03 00:42:37;;;;;;;17.10;4.80;;;;;;;-147.86;100.00;-13141.91;105669;1254;72141;-59
2024/02/03 00:45:06;;;;;;;24.20;4.90;;;;;;;-147.86;100.00;-12760.58;105675;1254;63156;-55
2024/02/03 00:47:33;;;;;;;18.60;4.50;;;;;;;-147.86;100.00;-12403.54;105729;1254;71637;-59
2024/02/03 00:50:01;;;;;;;19.40;4.90;;;;;;;-147.86;100.00;-12040.28;105704;1259;59888;-52
2024/02/03 00:52:29;;;;;;;30.40;5.40;;;;;;;-147.86;100.00;-11641.08;105719;1257;59564;-58
2024/02/03 00:54:57;;;;;;;24.20;4.90;;;;;;;-147.86;100.00;-11140.68;105698;1254;72085;-58
2024/02/03 00:57:24;;;;;;;19.90;4.40;;;;;;;-147.86;100.00;-10725.56;105698;1254;63342;-56
2024/02/03 00:59:52;;;;;;;22.20;5.20;;;;;;;-147.86;100.00;-10501.19;105664;1254;72663;-58
2024/02/03 01:02:20;;;;;;;25.60;5.30;;;;;;;-147.86;100.00;-10345.16;105683;1254;60888;-55
2024/02/03 01:04:48;;;;;;;17.50;4.60;;;;;;;-147.86;100.00;-10200.33;105719;1259;60607;-55
2024/02/03 01:07:15;;;;;;;29.90;5.50;;;;;;;-147.86;100.00;-10160.16;105679;1254;72570;-56
2024/02/03 01:09:43;;;;;;;16.00;4.40;;;;;;;-147.86;100.00;-10152.44;105671;1255;62241;-59
2024/02/03 01:12:11;;;;;;;29.50;5.30;;;;;;;-147.86;100.00;-10240.11;105686;1256;72611;-57
2024/02/03 01:14:39;;;;;;;15.40;4.40;;;;;;;-147.86;100.00;-10268.31;105695;1254;60840;-53
2024/02/03 01:52:22;;;;;;;19.00;4.50;;;;;;;-147.86;100.00;-5248.81;102598;1292;600631;-59
2024/02/03 01:54:50;;;;;;;17.00;4.20;;;;;;;-147.86;100.00;-11198.47;104791;1266;59327;-55
2024/02/03 01:57:19;;;;;;;27.90;4.60;;;;;;;-147.86;100.00;-9935.33;104883;1266;60046;-55
2024/02/03 01:59:47;;;;;;;22.80;4.80;;;;;;;-147.86;100.00;-9457.12;104865;1266;72173;-54
2024/02/03 02:02:15;;;;;;;28.00;4.30;;;;;;;-147.86;100.00;-9180.54;104850;1271;63134;-56
2024/02/03 02:04:42;;;;;;;18.20;3.80;;;;;;;-147.86;100.00;-9146.16;104795;1266;71593;-54
2024/02/03 02:07:10;;;;;;;18.90;3.90;;;;;;;-147.86;100.00;-9052.66;104685;1266;235431;-55
2024/02/03 02:09:38;;;;;;;17.60;4.10;;;;;;;-147.86;100.00;-8977.71;104853;1269;60020;-56
2024/02/03 02:12:06;;;;;;;15.70;4.20;;;;;;;-147.86;100.00;-9006.69;105102;1268;72210;-57
2024/02/03 02:14:34;;;;;;;20.90;4.40;;;;;;;-147.86;100.00;-9053.05;105079;1268;64398;-55
2024/02/03 02:17:02;;;;;;;18.80;3.80;;;;;;;-147.86;100.00;-9073.53;105007;1266;72620;-55
2024/02/03 02:19:30;;;;;;;19.70;3.80;;;;;;;-147.86;100.00;-9063.09;105068;1268;59750;-59
2024/02/03 02:21:58;;;;;;;13.80;3.50;;;;;;;-147.86;100.00;-9050.73;105052;1266;59937;-52
2024/02/03 02:24:26;;;;;;;18.40;4.10;;;;;;;-147.86;100.00;-8893.09;104914;1266;71755;-56
2024/02/03 02:26:54;;;;;;;14.00;4.20;;;;;;;-147.86;100.00;-8742.41;105043;1268;64455;-58
2024/02/03 02:29:21;;;;;;;29.70;4.50;;;;;;;-147.86;100.00;-8498.58;104878;1267;71367;-59
2024/02/03 02:31:49;;;;;;;23.80;3.70;;;;;;;-147.86;100.00;-8071.58;104888;1270;59824;-55
2024/02/03 02:34:17;;;;;;;16.00;4.30;;;;;;;-147.86;100.00;-7722.99;105087;1269;59685;-56
2024/02/03 02:36:45;;;;;;;21.90;4.50;;;;;;;-147.86;100.00;-7334.55;104945;1266;71829;-58
2024/02/03 02:39:14;;;;;;;14.00;4.00;;;;;;;-147.86;100.00;-6901.24;105608;1256;63157;-53
2024/02/03 02:41:42;;;;;;;20.50;4.60;;;;;;;-147.86;100.00;-6605.49;105603;1256;71397;-58
2024/02/03 02:44:10;;;;;;;25.60;4.10;;;;;;;-147.86;100.00;-6100.19;105513;1261;60329;-55
2024/02/03 02:46:37;;;;;;;18.80;3.70;;;;;;;-147.86;100.00;-5625.75;105574;1259;59645;-54
2024/02/03 02:49:07;;;;;;;14.10;3.60;;;;;;;-147.86;100.00;-5317.55;105434;1257;71819;-56
2024/02/03 02:51:35;;;;;;;16.20;4.30;;;;;;;-147.86;100.00;-5104.42;105499;1260;63096;-55
2024/02/03 02:54:04;;;;;;;20.30;3.90;;;;;;;-147.86;100.00;-4508.42;105436;1262;72676;-58
2024/02/03 02:56:32;;;;;;;16.60;3.80;;;;;;;-147.86;100.00;-4071.32;105470;1262;59712;-57
2024/02/03 02:59:00;;;;;;;17.70;3.70;;;;;;;-147.86;100.00;-3771.11;105466;1262;59755;-55
2024/02/03 03:01:27;;;;;;;21.20;4.00;;;;;;;-147.86;100.00;-3448.06;105496;1262;73097;-56
2024/02/03 03:03:55;;;;;;;22.20;3.80;;;;;;;-147.86;100.00;-3359.86;105446;1257;62144;-57
2024/02/03 03:06:23;;;;;;;22.10;4.60;;;;;;;-147.86;100.00;-3455.43;105445;1260;71399;-56
2024/02/03 03:08:51;;;;;;;23.40;4.50;;;;;;;-147.86;100.00;-3615.23;105409;1262;59719;-55
2024/02/03 03:11:20;;;;;;;23.20;4.60;;;;;;;-147.86;100.00;-3817.57;105483;1262;59994;-56
2024/02/03 03:13:47;;;;;;;18.60;4.10;;;;;;;-147.86;100.00;-4104.21;105491;1262;71858;-57
2024/02/03 03:16:15;;;;;;;15.50;4.60;;;;;;;-147.86;100.00;-4214.09;105486;1257;63187;-56
2024/02/03 03:18:43;;;;;;;18.30;4.30;;;;;;;-147.86;100.00;-4478.30;105435;1262;71394;-53
2024/02/03 03:21:12;;;;;;;16.90;3.60;;;;;;;-147.86;100.00;-4873.59;105528;1259;60171;-55
2024/02/03 03:23:40;;;;;;;16.10;4.50;;;;;;;-147.86;100.00;-5378.29;105519;1262;60031;-57
2024/02/03 03:26:08;;;;;;;16.80;3.50;;;;;;;-147.86;100.00;-5760.35;105663;1253;71805;-56
2024/02/03 03:28:35;;;;;;;15.00;3.40;;;;;;;-147.86;100.00;-6078.58;105746;1258;64466;-54
2024/02/03 03:31:04;;;;;;;20.90;4.30;;;;;;;-147.86;100.00;-6449.36;105674;1259;72162;-53
2024/02/03 03:33:32;;;;;;;21.70;3.70;;;;;;;-147.86;100.00;-6870.72;105639;1258;59680;-58
2024/02/03 03:36:00;;;;;;;28.30;4.30;;;;;;;-147.86;100.00;-7055.12;105702;1260;59639;-57
2024/02/03 03:38:28;;;;;;;15.20;3.90;;;;;;;-147.86;100.00;-7285.89;105615;1258;71854;-53
2024/02/03 03:40:56;;;;;;;17.80;4.00;;;;;;;-147.86;100.00;-7676.65;105664;1258;64490;-56
2024/02/03 03:43:24;;;;;;;29.30;4.50;;;;;;;-147.86;100.00;-8174.40;105635;1257;71413;-58
2024/02/03 03:45:52;;;;;;;21.40;3.60;;;;;;;-147.86;100.00;-8378.82;105667;1254;60904;-59
2024/02/03 03:48:20;;;;;;;18.30;3.50;;;;;;;-147.86;100.00;-8588.24;105647;1258;59299;-56
2024/02/03 03:50:48;;;;;;;25.70;3.60;;;;;;;-147.86;100.00;-8660.88;105684;1254;71821;-58
2024/02/03 03:53:16;;;;;;;21.80;4.00;;;;;;;-147.86;100.00;-8578.96;105686;1255;63511;-55
2024/02/03 03:55:44;;;;;;;17.20;3.70;;;;;;;-147.86;100.00;-8396.58;105649;1256;71461;-56
2024/02/03 03:58:12;;;;;;;14.40;4.10;;;;;;;-147.86;100.00;-8353.30;105612;1258;59708;-54
2024/02/03 04:00:39;;;;;;;27.40;4.00;;;;;;;-147.86;100.00;-8188.30;105637;1255;59986;-56
2024/02/03 04:03:07;;;;;;;18.40;3.70;;;;;;;-147.86;100.00;-8034.49;105613;1258;73082;-59
2024/02/03 04:05:35;;;;;;;18.60;3.50;;;;;;;-147.86;100.00;-7912.76;105685;1253;63232;-56
2024/02/03 04:08:05;;;;;;;24.80;4.30;;;;;;;-147.86;100.00;-7986.58;105660;1260;71378;-58
2024/02/03 04:10:33;;;;;;;9.70;2.90;;;;;;;-147.86;100.00;-8199.11;105686;1259;59672;-55
2024/02/03 04:13:00;;;;;;;21.00;4.50;;;;;;;-147.86;100.00;-8252.46;105772;1259;59561;-56
2024/02/03 04:15:31;;;;;;;23.90;3.60;;;;;;;-147.86;100.00;-8405.48;105618;1254;72064;-56
2024/02/03 04:17:59;;;;;;;19.70;4.00;;;;;;;-147.86;100.00;-8807.30;105657;1259;64513;-56
2024/02/03 04:20:27;;;;;;;16.20;3.30;;;;;;;-147.86;100.00;-8779.12;105632;1257;71385;-55
2024/02/03 04:22:55;;;;;;;28.80;4.10;;;;;;;-147.86;100.00;-8926.34;105648;1259;59747;-53
2024/02/03 04:25:22;;;;;;;20.10;3.60;;;;;;;-147.86;100.00;-9119.12;105602;1258;59708;-56
2024/02/03 04:27:50;;;;;;;19.80;3.90;;;;;;;-147.86;100.00;-9291.42;105664;1254;71794;-59
2024/02/03 04:30:19;;;;;;;20.60;3.70;;;;;;;-147.86;100.00;-9425.86;105645;1253;63211;-58
2024/02/03 04:32:52;;;;;;;19.50;4.00;;;;;;;-147.86;100.00;-9834.11;105678;1257;71392;-57
2024/02/03 04:35:20;;;;;;;19.90;4.00;;;;;;;-147.86;100.00;-9517.77;105654;1258;59645;-55
2024/02/03 04:37:48;;;;;;;13.50;3.10;;;;;;;-147.86;100.00;-9147.68;105772;1254;59988;-59
2024/02/03 04:40:16;;;;;;;21.70;3.70;;;;;;;-147.86;100.00;-8844.02;105615;1268;73553;-57
2024/02/03 04:42:44;;;;;;;17.40;3.20;;;;;;;-147.86;100.00;-8690.23;105706;1260;63129;-57
2024/02/03 04:45:12;;;;;;;22.00;4.00;;;;;;;-147.86;100.00;-8345.17;105634;1260;71443;-54
2024/02/03 04:47:40;;;;;;;16.30;3.90;;;;;;;-147.86;100.00;-7903.85;105702;1259;59758;-55
2024/02/03 04:50:08;;;;;;;19.60;4.50;;;;;;;-147.86;100.00;-7423.06;105624;1258;59781;-55
2024/02/03 04:52:36;;;;;;;15.40;4.50;;;;;;;-147.86;100.00;-7002.89;105662;1259;71795;-57
2024/02/03 04:55:05;;;;;;;17.90;4.70;;;;;;;-147.86;100.00;-6501.89;105673;1258;63361;-54
2024/02/03 04:57:32;;;;;;;15.00;3.60;;;;;;;-147.86;100.00;-6075.81;105653;1258;72661;-57
2024/02/03 05:00:00;;;;;;;19.30;4.10;;;;;;;-147.86;100.00;-5683.76;105644;1254;59721;-56
2024/02/03 05:02:28;;;;;;;26.10;4.70;;;;;;;-147.86;100.00;-5642.01;105715;1258;59722;-56
2024/02/03 05:04:56;;;;;;;21.20;4.00;;;;;;;-147.86;100.00;-5797.85;105661;1258;71776;-59
2024/02/03 05:07:24;;;;;;;13.10;3.10;;;;;;;-147.86;100.00;-6021.73;105687;1253;63226;-57
2024/02/03 05:09:52;;;;;;;29.30;4.30;;;;;;;-147.86;100.00;-6345.74;105680;1261;72678;-57
2024/02/03 05:12:20;;;;;;;18.50;4.10;;;;;;;-147.86;100.00;-6852.57;105605;1259;59737;-55
2024/02/03 05:14:48;;;;;;;20.90;4.50;;;;;;;-147.86;100.00;-7356.24;105669;1260;60023;-58
2024/02/03 05:17:15;;;;;;;18.80;4.00;;;;;;;-147.86;100.00;-7791.82;105666;1261;73030;-59
2024/02/03 05:19:43;;;;;;;12.30;3.30;;;;;;;-147.86;100.00;-8194.89;105646;1258;63202;-57
2024/02/03 05:52:24;;;;;;;18.50;3.90;;;;;;;-147.86;100.00;-7304.94;102612;1296;600147;-55
2024/02/03 05:54:52;;;;;;;14.20;4.20;;;;;;;-147.86;100.00;-15823.61;104809;1267;59655;-56
2024/02/03 05:57:20;;;;;;;24.60;4.40;;;;;;;-147.86;100.00;-15397.83;104813;1271;60011;-58
2024/02/03 05:59:47;;;;;;;24.00;4.40;;;;;;;-147.86;100.00;-15278.65;104792;1267;71023;-54
2024/02/03 06:02:18;;;;;;;22.00;4.00;;;;;;;-147.86;100.00;-15554.81;104837;1272;63192;-59
2024/02/03 06:04:46;;;;;;;17.80;4.20;;;;;;;-147.86;100.00;-15526.67;104790;1270;71936;-53
2024/02/03 06:07:16;;;;;;;23.20;4.00;;;;;;;-147.86;100.00;-15892.30;104962;1269;217195;-57
2024/02/03 06:09:44;;;;;;;17.10;4.00;;;;;;;-147.86;100.00;-16412.90;105120;1269;59259;-55
2024/02/03 06:12:12;;;;;;;18.80;3.60;;;;;;;-147.86;100.00;-16646.96;104970;1269;72286;-56
2024/02/03 06:14:41;;;;;;;18.30;4.00;;;;;;;-147.86;100.00;-16827.03;104979;1270;63137;-59
2024/02/03 06:17:08;;;;;;;19.00;4.10;;;;;;;-147.86;100.00;-16997.83;105063;1268;71817;-56
2024/02/03 06:19:36;;;;;;;23.10;4.90;;;;;;;-147.86;100.00;-17097.30;105048;1268;59782;-55
2024/02/03 06:22:10;;;;;;;14.50;3.80;;;;;;;-147.86;100.00;-17399.46;104946;1269;59605;-52
2024/02/03 06:24:37;;;;;;;17.10;3.40;;;;;;;-147.86;100.00;-17502.77;105061;1266;72099;-58
2024/02/03 06:27:05;;;;;;;16.20;3.60;;;;;;;-147.86;100.00;-17592.79;105020;1277;64420;-58
2024/02/03 06:29:33;;;;;;;17.00;4.30;;;;;;;-147.86;100.00;-17609.17;104968;1268;72734;-56
2024/02/03 06:32:01;;;;;;;20.20;3.90;;;;;;;-147.86;100.00;-17609.17;104944;1271;61235;-53
2024/02/03 06:34:29;;;;;;;15.60;4.20;;;;;;;-147.86;100.00;-17609.17;105067;1268;59920;-60
2024/02/03 06:36:56;;;;;;;15.10;4.40;;;;;;;-147.86;100.00;-17609.17;105074;1264;71763;-61
2024/02/03 06:39:24;;;;;;;17.70;3.50;;;;;;;-147.86;100.00;-17609.17;105108;1268;63271;-55
2024/02/03 06:41:52;;;;;;;15.90;3.90;;;;;;;-147.86;100.00;-17609.17;104939;1270;72849;-60
2024/02/03 06:44:20;;;;;;;13.80;3.90;;;;;;;-147.86;100.00;-17609.17;104947;1269;59793;-59
2024/02/03 06:46:47;;;;;;;15.90;3.50;;;;;;;-147.86;100.00;-17609.17;105077;1268;60331;-56
2024/02/03 06:49:15;;;;;;;13.70;3.70;;;;;;;-147.86;100.00;-17609.17;105176;1270;71873;-58
2024/02/03 06:51:43;;;;;;;16.30;4.10;;;;;;;-147.86;100.00;-17609.17;104878;1267;63330;-58
2024/02/03 06:54:11;;;;;;;23.40;4.30;;;;;;;-147.86;100.00;-17609.17;104862;1268;71344;-60
2024/02/03 06:56:39;;;;;;;23.90;3.90;;;;;;;-147.86;100.00;-17609.17;104836;1271;59688;-56
2024/02/03 06:59:06;;;;;;;15.80;4.20;;;;;;;-147.86;100.00;-17609.17;104882;1270;59829;-57
2024/02/03 07:01:34;;;;;;;20.20;4.10;;;;;;;-147.86;100.00;-17609.17;104861;1270;73055;-60
2024/02/03 07:04:01;;;;;;;12.50;3.90;;;;;;;-147.86;100.00;-17609.17;104881;1265;62222;-58
2024/02/03 07:06:29;;;;;;;18.70;4.40;;;;;;;-147.86;100.00;-17609.17;104849;1269;71384;-58
2024/02/03 07:08:57;;;;;;;17.50;4.70;;;;;;;-147.86;100.00;-17609.17;104895;1271;60154;-56
2024/02/03 07:11:25;;;;;;;14.70;4.30;;;;;;;-147.86;100.00;-17609.17;104861;1269;59568;-55
2024/02/03 07:13:52;;;;;;;20.20;4.50;;;;;;;-147.86;100.00;-17609.17;104878;1269;71856;-58
2024/02/03 07:16:20;;;;;;;16.20;4.30;;;;;;;-147.86;100.00;-17609.17;104850;1267;64487;-60
2024/02/03 07:21:35;;;;;;;18.90;4.90;;;;;;;-147.86;100.00;-17609.17;102671;1290;600592;-60
2024/02/03 07:24:03;;;;;;;13.10;4.70;;;;;;;-147.86;100.00;-17609.17;104991;1266;59261;-61
2024/02/03 07:26:30;;;;;;;23.10;5.10;;;;;;;-147.86;100.00;-17609.17;104856;1266;59392;-57
2024/02/03 07:28:58;;;;;;;18.40;4.00;;;;;;;-147.86;100.00;-17609.17;104908;1269;72225;-58
2024/02/03 07:31:29;;;;;;;19.50;4.80;;;;;;;-147.86;100.00;-17609.17;105517;1256;64409;-57
2024/02/03 07:33:57;;;;;;;21.10;5.10;;;;;;;-147.86;100.00;-17609.17;105541;1256;72780;-58
2024/02/03 07:36:25;;;;;;;16.20;4.80;;;;;;;-147.86;100.00;-17609.17;105343;1256;441244;-61
2024/02/03 07:38:53;;;;;;;16.70;4.70;;;;;;;-147.86;100.00;-17609.17;105640;1256;59357;-54
2024/02/03 07:41:20;;;;;;;28.30;5.10;;;;;;;-147.86;100.00;-17609.17;105638;1256;71005;-57
2024/02/03 07:43:48;;;;;;;26.30;5.30;;;;;;;-147.86;100.00;-17609.17;105652;1257;64458;-61
2024/02/03 07:46:16;;;;;;;24.60;4.70;;;;;;;-147.86;100.00;-17609.17;105630;1259;72665;-57
2024/02/03 07:48:43;;;;;;;20.00;5.80;;;;;;;-147.86;100.00;-17609.17;105608;1256;59717;-55
2024/02/03 07:51:12;;;;;;;20.90;5.60;;;;;;;-147.86;100.00;-17609.17;105634;1260;60030;-59
2024/02/03 07:53:40;;;;;;;25.30;5.80;;;;;;;-147.86;100.00;-17609.17;105610;1257;71840;-54
2024/02/03 07:56:08;;;;;;;21.10;5.90;;;;;;;-147.86;100.00;-17609.17;105627;1260;64358;-58
2024/02/03 07:58:36;;;;;;;21.60;6.50;;;;;;;-147.86;100.00;-17609.17;105617;1260;71404;-56
2024/02/03 08:01:04;;;;;;;23.20;6.20;;;;;;;-147.86;100.00;-17609.17;105600;1260;61274;-56
2024/02/03 08:03:32;;;;;;;21.80;6.40;;;;;;;-147.86;100.00;-17609.17;105601;1260;59558;-60
2024/02/03 08:06:00;;;;;;;26.70;7.30;;;;;;;-147.86;100.00;-17608.11;105634;1257;71785;-57
2024/02/03 08:08:28;;;;;;;36.60;8.80;;;;;;;-147.86;100.00;-16599.76;105660;1256;63160;-57
2024/02/03 08:10:56;;;;;;;25.40;6.90;;;;;;;-147.86;100.00;-13402.58;105604;1255;72336;-58
2024/02/03 08:13:24;;;;;;;26.00;6.00;;;;;;;-147.86;100.00;-9172.90;105587;1257;59744;-59
2024/02/03 08:15:51;;;;;;;27.10;6.00;;;;;;;-147.86;100.00;-5024.49;105599;1255;59624;-57
2024/02/03 08:18:20;;;;;;;24.60;6.30;;;;;;;-147.86;100.00;-1130.28;105645;1257;73031;-57
2024/02/03 08:20:48;;;;;;;21.50;6.00;;;;;;;-147.86;100.00;2105.26;105645;1256;63348;-60
2024/02/03 08:23:16;;;;;;;27.90;6.80;;;;;;;-147.86;100.00;5132.59;105618;1257;71399;-60
2024/02/03 08:25:43;;;;;;;31.10;7.70;;;;;;;-147.86;100.00;7918.96;105617;1256;59743;-58
2024/02/03 08:28:12;;;;;;;19.40;6.70;;;;;;;-147.86;100.00;10644.53;105609;1254;60016;-59
2024/02/03 08:30:41;;;;;;;33.10;8.20;;;;;;;-147.86;100.00;13289.54;105594;1255;71854;-57
2024/02/03 08:33:09;;;;;;;29.20;6.80;;;;;;;-147.86;100.00;15452.33;105586;1256;63100;-57
2024/02/03 08:35:41;;;;;;;31.60;7.50;;;;;;;-147.86;100.00;17254.57;105612;1257;71368;-58
2024/02/03 08:38:09;;;;;;;35.60;8.20;;;;;;;-147.86;100.00;19010.70;105572;1256;59743;-58
2024/02/03 08:40:37;;;;;;;25.20;7.20;;;;;;;-147.86;100.00;20573.04;105567;1257;59553;-58
2024/02/03 08:43:05;;;;;;;22.30;6.80;;;;;;;-147.86;100.00;21595.48;105617;1256;71832;-56
2024/02/03 08:45:33;;;;;;;21.90;6.50;;;;;;;-147.86;100.00;22244.71;105628;1257;63543;-60
2024/02/03 08:48:01;;;;;;;23.30;7.90;;;;;;;-147.86;100.00;22688.31;105575;1256;72642;-60
2024/02/03 08:50:29;;;;;;;28.60;8.80;;;;;;;-147.86;100.00;23020.96;105579;1257;59769;-56
2024/02/03 08:52:57;;;;;;;28.00;7.00;;;;;;;-147.86;100.00;22137.44;105556;1260;60018;-57
2024/02/03 08:55:25;;;;;;;20.60;6.90;;;;;;;-147.86;100.00;21061.93;105599;1256;72118;-61
2024/02/03 08:57:53;;;;;;;19.10;5.50;;;;;;;-147.86;100.00;20922.27;105568;1256;63282;-60
2024/02/03 09:00:21;;;;;;;32.20;6.90;;;;;;;-147.86;100.00;21512.15;105570;1257;71478;-58
2024/02/03 09:02:50;;;;;;;19.90;5.70;;;;;;;-147.86;100.00;21639.16;105602;1256;59708;-59
2024/02/03 09:05:18;;;;;;;17.60;6.50;;;;;;;-147.86;100.00;22130.61;105604;1257;59680;-60
2024/02/03 09:07:47;;;;;;;25.70;6.50;;;;;;;-147.86;100.00;22474.19;105601;1256;71869;-59
2024/02/03 09:10:14;;;;;;;23.10;6.10;;;;;;;-147.86;100.00;22992.67;105670;1256;64475;-56
2024/02/03 09:12:42;;;;;;;23.80;5.90;;;;;;;-147.86;100.00;23485.07;105672;1261;72713;-58
2024/02/03 09:15:10;;;;;;;21.40;6.20;;;;;;;-147.86;100.00;23764.45;105605;1260;59744;-57
2024/02/03 09:17:38;;;;;;;19.70;5.90;;;;;;;-147.86;100.00;23986.16;105619;1261;60169;-57
2024/02/03 09:20:06;;;;;;;18.50;5.60;;;;;;;-147.86;100.00;24219.94;105579;1256;73105;-56
2024/02/03 09:22:34;;;;;;;18.20;6.50;;;;;;;-147.86;100.00;24311.19;105669;1257;63226;-58
2024/02/03 09:25:02;;;;;;;18.20;5.30;;;;;;;-147.86;100.00;24643.19;105567;1257;72648;-57
2024/02/03 09:27:31;;;;;;;18.40;6.50;;;;;;;-147.86;100.00;24836.12;105598;1260;59744;-58
2024/02/03 09:29:58;;;;;;;23.70;6.60;;;;;;;-147.86;100.00;24860.69;105634;1256;60096;-59
2024/02/03 09:32:28;;;;;;;21.90;5.80;;;;;;;-147.86;100.00;24936.29;105542;1256;75031;-59
2024/02/03 09:34:57;;;;;;;24.50;6.30;;;;;;;-147.86;100.00;24646.90;105636;1261;63085;-58
2024/02/03 09:37:24;;;;;;;18.60;6.00;;;;;;;-147.86;100.00;24999.04;105543;1257;71469;-57
2024/02/03 09:39:55;;;;;;;17.60;5.90;;;;;;;-147.86;100.00;24648.88;105620;1260;59752;-57
2024/02/03 09:42:24;;;;;;;16.40;5.90;;;;;;;-147.86;100.00;24757.08;105618;1260;59686;-60
2024/02/03 09:44:51;;;;;;;17.60;5.90;;;;;;;-147.86;100.00;24761.34;105620;1261;73026;-56
2024/02/03 09:47:19;;;;;;;23.00;6.20;;;;;;;-147.86;100.00;24803.03;105691;1255;62541;-57
2024/02/03 09:49:48;;;;;;;24.80;7.00;;;;;;;-147.86;100.00;24799.53;105589;1260;71924;-57
2024/02/03 09:52:16;;;;;;;17.60;6.10;;;;;;;-147.86;100.00;24738.40;105593;1256;59744;-60
2024/02/03 09:54:44;;;;;;;13.40;5.80;;;;;;;-147.86;100.00;24788.22;105485;1261;59636;-57
2024/02/03 09:57:13;;;;;;;22.20;6.60;;;;;;;-147.86;100.00;24661.24;105661;1257;71832;-58
2024/02/03 09:59:41;;;;;;;24.10;6.50;;;;;;;-147.86;100.00;24748.12;105572;1260;65432;-57
2024/02/03 10:02:08;;;;;;;19.20;6.90;;;;;;;-147.86;100.00;24851.37;105630;1256;72669;-56
2024/02/03 10:04:40;;;;;;;23.20;7.30;;;;;;;-147.86;100.00;24977.24;105563;1256;60869;-57
2024/02/03 10:07:09;;;;;;;22.70;7.10;;;;;;;-147.86;100.00;24460.01;105637;1256;60997;-59
2024/02/03 10:09:37;;;;;;;23.30;7.40;;;;;;;-147.86;100.00;24565.36;105639;1261;75283;-58
2024/02/03 10:12:19;;;;;;;26.60;7.60;;;;;;;-147.86;100.00;24344.55;105581;1260;66277;-60
2024/02/03 10:15:18;;;;;;;20.70;7.00;;;;;;;-147.86;100.00;23252.10;105641;1260;71759;-58
2024/02/03 10:17:46;;;;;;;25.90;6.70;;;;;;;-147.86;100.00;21680.05;105474;1261;61606;-58
2024/02/03 10:20:14;;;;;;;22.50;7.70;;;;;;;-147.86;100.00;24496.02;105524;1256;59731;-58
2024/02/03 10:22:45;;;;;;;26.50;8.20;;;;;;;-147.86;100.00;24913.41;105679;1256;72233;-57
2024/02/03 10:25:14;;;;;;;25.00;7.50;;;;;;;-147.86;100.00;24866.04;105587;1260;64308;-57
2024/02/03 10:27:43;;;;;;;23.20;7.10;;;;;;;-147.86;100.00;25250.24;105635;1260;72399;-57
2024/02/03 10:30:11;;;;;;;19.10;7.70;;;;;;;-147.86;100.00;25602.10;105574;1256;61164;-55
2024/02/03 10:32:39;;;;;;;21.70;8.30;;;;;;;-147.86;100.00;25685.95;105599;1257;60030;-55
2024/02/03 10:35:08;;;;;;;22.80;7.40;;;;;;;-147.86;100.00;25815.02;105586;1256;71873;-57
2024/02/03 10:37:37;;;;;;;24.90;7.30;;;;;;;-147.86;100.00;25925.72;105622;1256;63268;-56
2024/02/03 10:40:05;;;;;;;25.20;7.10;;;;;;;-147.86;100.00;25959.70;105622;1257;72765;-57
2024/02/03 10:42:35;;;;;;;23.90;6.60;;;;;;;-147.86;100.00;25916.81;105672;1260;59769;-59
2024/02/03 10:45:03;;;;;;;27.60;6.80;;;;;;;-147.86;100.00;25714.19;105627;1257;59997;-57
2024/02/03 10:47:31;;;;;;;18.80;7.00;;;;;;;-147.86;100.00;25835.70;105775;1256;70886;-58
2024/02/03 10:49:58;;;;;;;24.50;7.70;;;;;;;-147.86;100.00;25814.64;105682;1259;64389;-53
2024/02/03 10:52:27;;;;;;;21.10;7.70;;;;;;;-147.86;100.00;25596.77;105921;1253;72630;-58
2024/02/03 10:54:55;;;;;;;22.90;6.60;;;;;;;-147.86;100.00;25562.85;105782;1253;59667;-55
2024/02/03 10:57:24;;;;;;;18.90;7.50;;;;;;;-147.86;100.00;25439.70;105825;1256;59555;-55
2024/02/03 11:00:04;;;;;;;22.00;7.40;;;;;;;-147.86;100.00;25143.16;105860;1257;72846;-60
2024/02/03 11:02:32;;;;;;;25.50;7.00;;;;;;;-147.86;100.00;23727.12;105894;1257;63180;-56
2024/02/03 11:05:00;;;;;;;20.80;6.40;;;;;;;-147.86;100.00;24792.69;105828;1258;72153;-57
2024/02/03 11:07:30;;;;;;;22.90;7.70;;;;;;;-147.86;100.00;24523.51;105870;1257;60716;-57
2024/02/03 11:10:03;;;;;;;27.50;6.80;;;;;;;-147.86;100.00;24419.81;105860;1256;59509;-58
2024/02/03 11:12:34;;;;;;;18.60;6.30;;;;;;;-147.86;100.00;23991.39;105870;1257;72922;-57
2024/02/03 11:15:14;;;;;;;18.20;6.60;;;;;;;-147.86;100.00;23733.86;105876;1257;64733;-56
2024/02/03 11:17:43;;;;;;;18.70;6.50;;;;;;;-147.86;100.00;22731.13;105864;1253;71454;-56
2024/02/03 11:20:18;;;;;;;17.60;6.70;;;;;;;-147.86;100.00;23424.94;105879;1257;59661;-59
2024/02/03 11:22:53;;;;;;;22.10;7.10;;;;;;;-147.86;100.00;22530.12;105902;1253;59690;-56
2024/02/03 11:25:21;;;;;;;21.80;6.40;;;;;;;-147.86;100.00;22254.73;105857;1252;73990;-58
2024/02/03 11:27:48;;;;;;;18.50;6.70;;;;;;;-147.86;100.00;22718.15;105828;1253;64585;-57
2024/02/03 11:30:17;;;;;;;17.10;6.30;;;;;;;-147.86;100.00;22519.94;105901;1257;72693;-57
2024/02/03 11:32:45;;;;;;;16.90;6.20;;;;;;;-147.86;100.00;22481.37;105885;1256;60520;-58
2024/02/03 11:35:17;;;;;;;14.30;6.70;;;;;;;-147.86;100.00;22499.65;105885;1259;60501;-58
2024/02/03 11:37:45;;;;;;;16.90;7.20;;;;;;;-147.86;100.00;22194.95;105861;1253;73076;-58
2024/02/03 11:40:14;;;;;;;17.70;7.00;;;;;;;-147.86;100.00;22679.65;105926;1252;63284;-56
2024/02/03 11:42:45;;;;;;;21.30;7.10;;;;;;;-147.86;100.00;22845.61;105854;1257;74935;-53
2024/02/03 11:45:14;;;;;;;17.00;6.60;;;;;;;-147.86;100.00;22669.35;105917;1258;60749;-56
2024/02/03 11:47:42;;;;;;;17.30;7.50;;;;;;;-147.86;100.00;22819.97;105851;1253;60556;-55
2024/02/03 11:50:10;;;;;;;16.40;6.60;;;;;;;-147.86;100.00;23102.37;105905;1252;72549;-52
2024/02/03 11:52:45;;;;;;;17.30;7.70;;;;;;;-147.86;100.00;23378.13;105894;1251;64456;-57
2024/02/03 11:55:12;;;;;;;19.70;7.10;;;;;;;-147.86;100.00;22742.82;105875;1253;75051;-56
2024/02/03 11:57:42;;;;;;;19.20;7.50;;;;;;;-147.86;100.00;23547.63;105843;1257;60759;-57
2024/02/03 12:00:11;;;;;;;18.10;6.90;;;;;;;-147.86;100.00;23440.22;105929;1257;60418;-59
2024/02/03 12:02:38;;;;;;;17.80;7.10;;;;;;;-147.86;100.00;23584.30;105829;1259;72551;-57
2024/02/03 12:05:07;;;;;;;23.10;8.30;;;;;;;-147.86;100.00;23659.43;105889;1256;64688;-59